Inspiration — C6FM5 — position and weather

sailwx.info

Track history (hours):
 
Tides and Currents Weather Stations Pressure Air Temp Water Temp Dewpoint Dewpoint Depression Visibility Wind Speed Wind Dir Waves Ship Positions

Inspiration

Operator: Carnival Cruise Lines

Last reported at 2017-Jun-28 14:03 UTC. Time now 2017-Jun-29 01:52 UTC.
Position N 31°50' W 116°38'.

Type: Ship. MMSI: 309484000.

Date/timePositionNaut miles runAvg speedWind from/ knotsBaromVisibWave heightAir tempDewpointWater temp
2017-Jun-28 14:03N 31°50' W 116°38'5 7.9
2017-Jun-28 13:22N 31°51' W 116°44'4 9.2
2017-Jun-28 12:59N 31°53' W 116°48'4 8.9
2017-Jun-28 12:30N 31°55' W 116°52'5 9.1
2017-Jun-28 12:00N 31°56' W 116°57'5 9.4
2017-Jun-28 11:30N 31°57' W 117°03'4 8.8
2017-Jun-28 11:00N 31°58' W 117°08'4 8.8
2017-Jun-28 10:30N 31°59' W 117°13'4 8.8
2017-Jun-28 10:00N 32°01' W 117°17'5 9.4
2017-Jun-28 09:30N 32°03' W 117°22'5 9.4
2017-Jun-28 09:00N 32°06' W 117°27'10630.8
2017-Jun-28 09:00N 32°00' W 117°18'1429.6 340 / 161015.210.8 16.012.717.0
2017-Jun-28 08:30N 32°09' W 117°32'5 9.4
2017-Jun-28 08:00N 32°12' W 117°35'5 9.1
2017-Jun-28 07:30N 32°16' W 117°37'5 9.4
2017-Jun-28 07:00N 32°21' W 117°40'5 9.4
2017-Jun-28 06:30N 32°25' W 117°42'5 9.4
2017-Jun-28 06:00N 32°29' W 117°45'5 9.4
2017-Jun-28 05:30N 32°33' W 117°47'5 9.5
2017-Jun-28 05:00N 32°37' W 117°50'5 9.8
2017-Jun-28 04:30N 32°42' W 117°53'5 9.9
2017-Jun-28 04:00N 32°46' W 117°55'5 9.9
2017-Jun-28 03:30N 32°51' W 117°58'5 9.4
2017-Jun-28 03:00N 32°55' W 118°00'5 9.4
2017-Jun-28 02:30N 32°59' W 118°03'5 9.5
2017-Jun-28 02:00N 33°03' W 118°06'5 9.6
2017-Jun-28 01:30N 33°08' W 118°08'510.2
2017-Jun-28 01:00N 33°12' W 118°11'611.0
2017-Jun-28 00:30N 33°17' W 118°14'510.2
2017-Jun-28 00:00N 33°21' W 118°18'1 1.3
2017-Jun-27 23:26N 33°21' W 118°19'0 0.0
2017-Jun-27 22:59N 33°21' W 118°19'0 0.0
2017-Jun-27 22:28N 33°21' W 118°19'0 0.0
2017-Jun-27 21:58N 33°21' W 118°19'0 0.0
2017-Jun-27 21:19N 33°21' W 118°19'0 0.0
2017-Jun-27 20:55N 33°21' W 118°19'0 0.0
2017-Jun-27 20:28N 33°21' W 118°19'0 0.0
2017-Jun-27 20:00N 33°21' W 118°19'0 0.0
2017-Jun-27 19:30N 33°21' W 118°19'0 0.0
2017-Jun-27 19:00N 33°21' W 118°19'0 0.0
2017-Jun-27 18:30N 33°21' W 118°19'0 0.1
2017-Jun-27 18:00N 33°21' W 118°19'0 0.1
2017-Jun-27 17:29N 33°21' W 118°19'0 0.0
2017-Jun-27 16:59N 33°21' W 118°19'0 0.1
2017-Jun-27 16:29N 33°21' W 118°19'0 0.0
2017-Jun-27 15:59N 33°21' W 118°19'0 0.0
2017-Jun-27 15:29N 33°21' W 118°19'0 0.0
2017-Jun-27 14:55N 33°21' W 118°19'0 0.1
2017-Jun-27 14:00N 33°21' W 118°19'3 6.0
2017-Jun-27 13:30N 33°19' W 118°16'4 8.3
2017-Jun-27 13:00N 33°15' W 118°16'4 8.1
2017-Jun-27 12:31N 33°11' W 118°16'4 7.7
2017-Jun-27 12:00N 33°07' W 118°15'4 8.0
2017-Jun-27 11:30N 33°03' W 118°12'4 8.2
2017-Jun-27 11:00N 33°00' W 118°09'4 8.3
2017-Jun-27 10:31N 32°57' W 118°06'4 8.1
2017-Jun-27 10:01N 32°54' W 118°03'4 8.0
2017-Jun-27 09:30N 32°51' W 118°00'4 8.1
2017-Jun-27 09:00N 32°47' W 117°57'6433.1
2017-Jun-27 09:00N 32°42' W 117°54'714.9 300 / 121015.210.8 17.015.417.5
2017-Jun-27 08:30N 32°49' W 117°54'4 8.2
2017-Jun-27 08:01N 32°53' W 117°55'4 8.1
2017-Jun-27 07:30N 32°57' W 117°57'4 8.2
2017-Jun-27 07:00N 33°01' W 117°59'4 7.5
2017-Jun-27 06:30N 33°04' W 118°00'4 7.1
2017-Jun-27 06:00N 33°08' W 118°01'4 7.2
2017-Jun-27 05:30N 33°11' W 118°03'4 7.3
2017-Jun-27 05:00N 33°15' W 118°04'4 7.3
2017-Jun-27 04:31N 33°18' W 118°06'4 7.2
2017-Jun-27 04:00N 33°21' W 118°07'4 7.9
2017-Jun-27 03:31N 33°25' W 118°09'4 7.7
2017-Jun-27 03:01N 33°29' W 118°10'4 8.2
2017-Jun-27 02:30N 33°33' W 118°12'510.5
2017-Jun-27 02:00N 33°38' W 118°12'510.0
2017-Jun-27 01:30N 33°43' W 118°11'2 4.5
2017-Jun-27 00:59N 33°45' W 118°11'0 0.0
2017-Jun-27 00:29N 33°45' W 118°11'0 0.0
2017-Jun-26 23:59N 33°45' W 118°11'0 0.0
2017-Jun-26 23:29N 33°45' W 118°11'0 0.0
2017-Jun-26 22:58N 33°45' W 118°11'0 0.0
2017-Jun-26 22:28N 33°45' W 118°11'0 0.0
2017-Jun-26 21:58N 33°45' W 118°11'0 0.0
2017-Jun-26 21:28N 33°45' W 118°11'0 0.0
2017-Jun-26 21:00N 33°45' W 118°11'0 0.0
2017-Jun-26 20:30N 33°45' W 118°11'0 0.0
2017-Jun-26 20:00N 33°45' W 118°11'0 0.0
2017-Jun-26 19:30N 33°45' W 118°11'0 0.0
2017-Jun-26 19:00N 33°45' W 118°11'0 0.0
2017-Jun-26 18:29N 33°45' W 118°11'0 0.0
2017-Jun-26 17:59N 33°45' W 118°11'0 0.0
2017-Jun-26 17:29N 33°45' W 118°11'0 0.0
2017-Jun-26 16:59N 33°45' W 118°11'0 0.0
2017-Jun-26 16:25N 33°45' W 118°11'0 0.0
2017-Jun-26 15:58N 33°45' W 118°11'0 0.0
2017-Jun-26 15:28N 33°45' W 118°11'0 0.0
2017-Jun-26 14:58N 33°45' W 118°11'0 0.0
2017-Jun-26 14:28N 33°45' W 118°11'0 0.0
2017-Jun-26 13:30N 33°45' W 118°11'0 0.0
2017-Jun-26 12:54N 33°45' W 118°11'0 0.3
2017-Jun-26 12:30N 33°45' W 118°11'1 1.9
2017-Jun-26 12:00N 33°44' W 118°11'4 8.9
2017-Jun-26 11:30N 33°40' W 118°11'4 8.5
2017-Jun-26 11:00N 33°35' W 118°10'4 7.2
2017-Jun-26 10:30N 33°32' W 118°08'4 7.5
2017-Jun-26 10:00N 33°29' W 118°07'4 7.4
2017-Jun-26 09:30N 33°25' W 118°05'4 7.5
2017-Jun-26 09:00N 33°21' W 118°04'4 7.6
2017-Jun-26 08:30N 33°18' W 118°02'4 8.3
2017-Jun-26 08:00N 33°14' W 118°00'4 8.4
2017-Jun-26 07:30N 33°10' W 117°58'4 7.8
2017-Jun-26 07:00N 33°07' W 117°56'4 7.9
2017-Jun-26 06:30N 33°03' W 117°54'4 8.0
2017-Jun-26 06:00N 32°59' W 117°52'4 8.8
2017-Jun-26 05:30N 32°55' W 117°50'5 9.1
2017-Jun-26 05:01N 32°51' W 117°50'5 9.1
2017-Jun-26 04:30N 32°46' W 117°48'4 8.7
2017-Jun-26 04:00N 32°42' W 117°47'4 8.7
2017-Jun-26 03:30N 32°38' W 117°45'4 8.6
2017-Jun-26 03:00N 32°34' W 117°43'4 9.0
2017-Jun-26 02:30N 32°30' W 117°42'4 8.9
2017-Jun-26 02:00N 32°26' W 117°40'4 8.8
2017-Jun-26 01:30N 32°21' W 117°38'4 8.6
2017-Jun-26 01:00N 32°18' W 117°36'4 8.1
2017-Jun-26 00:30N 32°14' W 117°34'4 8.2
2017-Jun-26 00:00N 32°11' W 117°31'4 7.9
2017-Jun-25 23:31N 32°08' W 117°28'5 9.4
2017-Jun-25 23:00N 32°04' W 117°25'510.3
2017-Jun-25 22:30N 31°60' W 117°21'4 8.8
2017-Jun-25 22:00N 31°56' W 117°18'4 7.6
2017-Jun-25 21:30N 31°52' W 117°17'5 9.3
2017-Jun-25 21:00N 31°50' W 117°22'4276.5
2017-Jun-25 21:00N 31°48' W 117°18'917.7 300 / 261013.3 17.013.717.0
2017-Jun-25 20:30N 31°49' W 117°28'510.2
2017-Jun-25 20:00N 31°49' W 117°34'5 9.0
2017-Jun-25 19:30N 31°48' W 117°39'4 8.0
2017-Jun-25 19:00N 31°47' W 117°44'4 7.5
2017-Jun-25 18:30N 31°46' W 117°48'4 7.7
2017-Jun-25 18:00N 31°45' W 117°52'4 7.5
2017-Jun-25 17:30N 31°44' W 117°57'3 6.2
2017-Jun-25 17:00N 31°41' W 117°55'3 6.7
2017-Jun-25 16:30N 31°38' W 117°53'3 6.2
2017-Jun-25 16:00N 31°37' W 117°56'4 7.5
2017-Jun-25 15:31N 31°36' W 118°00'4 7.5
2017-Jun-25 15:00N 31°35' W 118°05'4 7.3
2017-Jun-25 14:30N 31°34' W 118°09'3 3.4
2017-Jun-25 13:30N 31°31' W 118°09'3 6.9
2017-Jun-25 13:00N 31°31' W 118°05'3 7.0
2017-Jun-25 12:31N 31°31' W 118°01'4 7.1
2017-Jun-25 12:00N 31°31' W 117°57'4 7.1
2017-Jun-25 11:30N 31°31' W 117°53'3 6.5
2017-Jun-25 11:00N 31°33' W 117°50'4 7.2
2017-Jun-25 10:30N 31°36' W 117°51'4 7.6
2017-Jun-25 10:01N 31°39' W 117°54'4 7.1
2017-Jun-25 09:30N 31°42' W 117°55'4 7.4
2017-Jun-25 09:00N 31°45' W 117°53'5319.9
2017-Jun-25 09:00N 31°42' W 117°48'3 7.2 310 / 251014.2 5.4 17.015.417.0
2017-Jun-25 08:31N 31°45' W 117°48'4 8.1
2017-Jun-25 08:00N 31°46' W 117°43'4 8.0
2017-Jun-25 07:31N 31°47' W 117°39'4 8.0
2017-Jun-25 07:00N 31°47' W 117°34'4 7.9
2017-Jun-25 06:30N 31°48' W 117°29'4 8.0
2017-Jun-25 06:01N 31°48' W 117°25'6330.3
2017-Jun-25 06:00N 31°42' W 117°24'713.7 320 / 211015.210.8 17.015.417.0
2017-Jun-25 05:31N 31°48' W 117°20'4 8.2
2017-Jun-25 05:00N 31°48' W 117°15'4 8.0
2017-Jun-25 04:31N 31°48' W 117°10'4 8.3
2017-Jun-25 04:01N 31°49' W 117°06'4 8.3
2017-Jun-25 03:31N 31°49' W 117°01'4 8.5
2017-Jun-25 03:00N 31°50' W 116°56'4 8.8
2017-Jun-25 02:30N 31°50' W 116°50'5 9.4
2017-Jun-25 02:00N 31°50' W 116°45'5 9.8
2017-Jun-25 01:31N 31°50' W 116°39'1 0.1
2017-Jun-24 14:00N 31°50' W 116°40'2364.0
2017-Jun-24 14:00N 31°48' W 116°42'4 8.5 320 / 151016.2 5.4 16.012.716.0
2017-Jun-24 13:29N 31°51' W 116°45'510.1
2017-Jun-24 13:00N 31°54' W 116°50'510.7
2017-Jun-24 12:30N 31°56' W 116°56'510.3
2017-Jun-24 12:00N 31°57' W 117°02'611.6
2017-Jun-24 11:30N 31°59' W 117°08'714.8
2017-Jun-24 11:00N 32°02' W 117°16'714.9
2017-Jun-24 10:30N 32°06' W 117°23'815.0
2017-Jun-24 10:00N 32°11' W 117°30'7640.1
2017-Jun-24 10:00N 32°06' W 117°24'1530.4 320 / 201013.3 17.013.717.0
2017-Jun-24 09:30N 32°18' W 117°34'714.6
2017-Jun-24 09:00N 32°25' W 117°37'713.2
2017-Jun-24 08:30N 32°31' W 117°40'611.4
2017-Jun-24 08:00N 32°36' W 117°43'611.5
2017-Jun-24 07:30N 32°41' W 117°46'611.4
2017-Jun-24 07:00N 32°47' W 117°48'611.3
2017-Jun-24 06:30N 32°52' W 117°51'611.1
2017-Jun-24 06:00N 32°57' W 117°54'611.3
2017-Jun-24 05:30N 33°02' W 117°57'611.1
2017-Jun-24 05:00N 33°07' W 118°00'510.5
2017-Jun-24 04:30N 33°12' W 118°02'511.0
2017-Jun-24 04:00N 33°17' W 118°05'611.3
2017-Jun-24 03:30N 33°22' W 118°07'511.0
2017-Jun-24 03:00N 33°27' W 118°10'510.9
2017-Jun-24 02:30N 33°32' W 118°12'510.7
2017-Jun-24 02:00N 33°37' W 118°13'510.0
2017-Jun-24 01:30N 33°42' W 118°11'3 3.8
2017-Jun-24 00:47N 33°45' W 118°11'0 0.0
2017-Jun-24 00:26N 33°45' W 118°11'0 0.0
2017-Jun-23 23:55N 33°45' W 118°11'0 0.0
2017-Jun-23 23:25N 33°45' W 118°11'0 0.0
2017-Jun-23 22:55N 33°45' W 118°11'0 0.0
2017-Jun-23 22:28N 33°45' W 118°11'0 0.0
2017-Jun-23 22:00N 33°45' W 118°11'0 0.0
2017-Jun-23 21:30N 33°45' W 118°11'0 0.0
2017-Jun-23 20:30N 33°45' W 118°11'0 0.0
2017-Jun-23 19:51N 33°45' W 118°11'0 0.0
2017-Jun-23 19:26N 33°45' W 118°11'0 0.0
2017-Jun-23 18:59N 33°45' W 118°11'0 0.0
2017-Jun-23 18:29N 33°45' W 118°11'0 0.0
2017-Jun-23 17:53N 33°45' W 118°11'0 0.0
2017-Jun-23 17:29N 33°45' W 118°11'0 0.0
2017-Jun-23 16:58N 33°45' W 118°11'0 0.0
2017-Jun-23 16:28N 33°45' W 118°11'0 0.0
2017-Jun-23 15:58N 33°45' W 118°11'0 0.0
2017-Jun-23 15:22N 33°45' W 118°11'0 0.0
2017-Jun-23 15:00N 33°45' W 118°11'0 0.0
2017-Jun-23 14:00N 33°45' W 118°11'0 0.0
2017-Jun-23 13:27N 33°45' W 118°11'0 0.0
2017-Jun-23 13:00N 33°45' W 118°11'0 0.1
2017-Jun-23 12:30N 33°45' W 118°11'1 2.0
2017-Jun-23 12:00N 33°44' W 118°11'5 9.3
2017-Jun-23 11:30N 33°39' W 118°10'4 8.0
2017-Jun-23 11:00N 33°36' W 118°10'4 8.1
2017-Jun-23 10:30N 33°32' W 118°08'4 8.0
2017-Jun-23 10:00N 33°28' W 118°06'4 8.2
2017-Jun-23 09:30N 33°24' W 118°05'4 8.0
2017-Jun-23 09:00N 33°20' W 118°03'4 7.9
2017-Jun-23 08:30N 33°17' W 118°01'4 8.2
2017-Jun-23 08:00N 33°13' W 117°60'4 7.7
2017-Jun-23 07:30N 33°09' W 117°58'4 8.4
2017-Jun-23 07:00N 33°05' W 117°56'2140.6
2017-Jun-23 07:00N 33°06' W 117°54'4 9.3 300 / 31013.2 5.4 17.013.717.0
2017-Jun-23 06:30N 33°02' W 117°55'4 7.5
2017-Jun-23 06:00N 32°58' W 117°54'6403.5
2017-Jun-23 06:00N 32°54' W 117°48'4 7.3 180 / 51015.210.8 17.015.417.0
2017-Jun-23 05:30N 32°55' W 117°52'4 7.8
2017-Jun-23 05:00N 32°51' W 117°50'4 7.8
2017-Jun-23 04:30N 32°47' W 117°49'4 7.8
2017-Jun-23 04:00N 32°44' W 117°47'4 7.7
2017-Jun-23 03:30N 32°40' W 117°45'4 7.8
2017-Jun-23 03:00N 32°36' W 117°44'4 8.0
2017-Jun-23 02:30N 32°33' W 117°42'4 8.1
2017-Jun-23 02:00N 32°29' W 117°41'4 8.0
2017-Jun-23 01:30N 32°25' W 117°40'4 8.1
2017-Jun-23 01:00N 32°21' W 117°38'4 7.9
2017-Jun-23 00:30N 32°17' W 117°37'4 7.9
2017-Jun-23 00:00N 32°14' W 117°34'4 8.3
2017-Jun-22 23:29N 32°10' W 117°32'4 9.2
2017-Jun-22 23:00N 32°06' W 117°30'5 9.2
2017-Jun-22 22:29N 32°02' W 117°27'4 9.3
2017-Jun-22 22:00N 31°57' W 117°25'5 9.4
2017-Jun-22 21:26N 31°53' W 117°23'4 8.7
2017-Jun-22 21:00N 31°49' W 117°22'6 9.7
2017-Jun-22 20:25N 31°47' W 117°29'512.3
2017-Jun-22 20:00N 31°42' W 117°30'5174.2 260 / 41013.2 18.014.817.0
2017-Jun-22 19:58N 31°46' W 117°33'5 8.6
2017-Jun-22 19:21N 31°44' W 117°39'3 8.6
2017-Jun-22 19:00N 31°43' W 117°43'4 8.7
2017-Jun-22 18:30N 31°42' W 117°47'4 8.0
2017-Jun-22 18:00N 31°40' W 117°51'4 7.0
2017-Jun-22 17:30N 31°37' W 117°49'3 5.4
2017-Jun-22 17:00N 31°35' W 117°51'4 7.6
2017-Jun-22 16:30N 31°36' W 117°55'4 7.5
2017-Jun-22 16:00N 31°37' W 117°59'4 7.7
2017-Jun-22 15:30N 31°39' W 118°03'4 7.3
2017-Jun-22 15:00N 31°39' W 118°08'4 7.9
2017-Jun-22 14:30N 31°36' W 118°10'51179919.8
2017-Jun-22 14:00N 31°30' W 018°06'511610487.4 290 / 101017.2 5.4 16.012.716.0
2017-Jun-22 13:30N 31°31' W 118°06'4 7.6
2017-Jun-22 13:00N 31°31' W 118°02'5 7.7
2017-Jun-22 12:25N 31°31' W 117°56'3 7.7
2017-Jun-22 12:00N 31°31' W 117°53'4 7.2
2017-Jun-22 11:30N 31°33' W 117°49'4 8.0
2017-Jun-22 11:00N 31°37' W 117°51'4 8.6
2017-Jun-22 10:30N 31°40' W 117°55'4 7.9
2017-Jun-22 10:00N 31°44' W 117°54'4 8.4
2017-Jun-22 09:30N 31°45' W 117°50'4 8.7
2017-Jun-22 09:00N 31°45' W 117°44'4586.2
2017-Jun-22 09:00N 31°42' W 117°42'4 9.2 290 / 101013.2 5.4 16.010.816.0
2017-Jun-22 08:30N 31°46' W 117°39'4 8.6
2017-Jun-22 08:00N 31°46' W 117°34'4 8.7
2017-Jun-22 07:30N 31°47' W 117°29'4 8.8
2017-Jun-22 07:00N 31°47' W 117°24'4 8.4
2017-Jun-22 06:30N 31°48' W 117°19'816.5
2017-Jun-22 06:00N 31°42' W 117°12'6298.2 320 / 101013.2 5.4 17.015.417.0
2017-Jun-22 05:58N 31°48' W 117°14'4 8.4
2017-Jun-22 05:30N 31°48' W 117°10'5 8.4
2017-Jun-22 04:55N 31°49' W 117°04'10 8.6
2017-Jun-22 03:47N 31°50' W 116°52'12 0.9
2017-Jun-21 14:10N 31°50' W 116°38'5 8.0
2017-Jun-21 13:31N 31°51' W 116°44'4 8.8
2017-Jun-21 13:00N 31°53' W 116°49'4 8.7
2017-Jun-21 12:30N 31°55' W 116°54'5 9.3
2017-Jun-21 12:01N 31°56' W 116°59'510.2
2017-Jun-21 11:30N 31°57' W 117°05'510.2
2017-Jun-21 11:01N 31°59' W 117°10'510.2
2017-Jun-21 10:31N 31°60' W 117°16'510.1
2017-Jun-21 10:00N 32°02' W 117°22'4254.7
2017-Jun-21 10:00N 32°00' W 117°18'918.1 300 / 131012.2 0.1 17.013.716.0
2017-Jun-21 09:31N 32°05' W 117°26'5 9.4
2017-Jun-21 09:01N 32°08' W 117°31'4 8.5
2017-Jun-21 08:31N 32°11' W 117°34'5 9.1
2017-Jun-21 08:01N 32°15' W 117°37'5 9.3
2017-Jun-21 07:31N 32°19' W 117°39'5 9.2
2017-Jun-21 07:01N 32°23' W 117°42'5 9.2
2017-Jun-21 06:30N 32°28' W 117°44'5 9.4
2017-Jun-21 06:01N 32°32' W 117°47'2125.0
2017-Jun-21 06:00N 32°30' W 117°48'612.4 350 / 111013.2 0.0 16.014.417.0
2017-Jun-21 05:31N 32°36' W 117°49'5 9.4
2017-Jun-21 05:01N 32°40' W 117°52'5 9.7
2017-Jun-21 04:30N 32°44' W 117°54'510.1
2017-Jun-21 04:01N 32°49' W 117°57'510.1
2017-Jun-21 03:31N 32°53' W 117°60'5 9.3
2017-Jun-21 03:01N 32°58' W 118°02'5 9.1
2017-Jun-21 02:30N 33°02' W 118°05'4 9.0
2017-Jun-21 02:01N 33°06' W 118°07'4 8.9
2017-Jun-21 01:30N 33°10' W 118°09'4 8.9
2017-Jun-21 01:01N 33°14' W 118°12'5 9.9
2017-Jun-21 00:31N 33°18' W 118°15'5 9.1
2017-Jun-21 00:01N 33°21' W 118°19'0 0.3
2017-Jun-20 23:27N 33°21' W 118°19'0 0.0
2017-Jun-20 22:56N 33°21' W 118°19'0 0.0
2017-Jun-20 22:20N 33°21' W 118°19'0 0.1
2017-Jun-20 21:59N 33°21' W 118°19'0 0.0
2017-Jun-20 21:29N 33°21' W 118°19'0 0.0
2017-Jun-20 20:59N 33°21' W 118°19'0 0.0
2017-Jun-20 20:28N 33°21' W 118°19'0 0.0
2017-Jun-20 19:58N 33°21' W 118°19'0 0.0
2017-Jun-20 19:28N 33°21' W 118°19'0 0.0
2017-Jun-20 18:58N 33°21' W 118°19'0 0.0
2017-Jun-20 18:30N 33°21' W 118°19'0 0.0
2017-Jun-20 18:00N 33°21' W 118°19'0 0.1
2017-Jun-20 17:30N 33°21' W 118°19'0 0.1
2017-Jun-20 17:00N 33°21' W 118°19'0 0.0
2017-Jun-20 16:30N 33°21' W 118°19'0 0.0
2017-Jun-20 15:59N 33°21' W 118°19'0 0.1
2017-Jun-20 15:17N 33°21' W 118°19'0 0.0
2017-Jun-20 15:01N 33°21' W 118°19'0 0.0
2017-Jun-20 14:30N 33°21' W 118°19'3 3.2
2017-Jun-20 13:31N 33°18' W 118°17'4 7.9
2017-Jun-20 13:00N 33°14' W 118°16'4 7.9
2017-Jun-20 12:30N 33°11' W 118°16'4 7.9
2017-Jun-20 12:00N 33°07' W 118°15'4 8.1
2017-Jun-20 11:30N 33°03' W 118°13'4 7.7
2017-Jun-20 11:00N 32°60' W 118°11'4 8.0
2017-Jun-20 10:31N 32°57' W 118°07'4 8.0
2017-Jun-20 10:00N 32°54' W 118°04'4 8.0
2017-Jun-20 09:31N 32°51' W 118°02'4 8.0
2017-Jun-20 09:00N 32°47' W 117°59'4 7.2
2017-Jun-20 08:30N 32°48' W 117°55'4 7.5
2017-Jun-20 08:01N 32°52' W 117°55'4227.2
2017-Jun-20 08:00N 32°48' W 117°54'816.3 290 / 101011.2 0.0 16.014.416.0
2017-Jun-20 07:31N 32°56' W 117°56'4 7.7
2017-Jun-20 07:00N 32°59' W 117°58'4 7.8
2017-Jun-20 06:31N 33°03' W 117°59'4 7.8
2017-Jun-20 06:00N 33°07' W 118°01'164.3
2017-Jun-20 06:00N 33°06' W 118°00'510.1 310 / 81013.2 17.013.717.0
2017-Jun-20 05:31N 33°10' W 118°03'4 7.9
2017-Jun-20 05:01N 33°14' W 118°04'4 8.0
2017-Jun-20 04:31N 33°18' W 118°06'4 7.9
2017-Jun-20 04:00N 33°22' W 118°07'4 8.0
2017-Jun-20 03:31N 33°25' W 118°09'4 8.0
2017-Jun-20 03:00N 33°29' W 118°10'4 8.2
2017-Jun-20 02:31N 33°33' W 118°12'510.2
2017-Jun-20 02:00N 33°38' W 118°13'5 9.2
2017-Jun-20 01:30N 33°43' W 118°11'2 5.0
2017-Jun-20 01:01N 33°45' W 118°11'0 0.0
2017-Jun-20 00:29N 33°45' W 118°11'0 0.0
2017-Jun-19 23:59N 33°45' W 118°11'0 0.0
2017-Jun-19 23:29N 33°45' W 118°11'0 0.0
2017-Jun-19 22:58N 33°45' W 118°11'0 0.0
2017-Jun-19 22:28N 33°45' W 118°11'0 0.0
2017-Jun-19 21:58N 33°45' W 118°11'0 0.0
2017-Jun-19 21:28N 33°45' W 118°11'0 0.0
2017-Jun-19 20:58N 33°45' W 118°11'0 0.0
2017-Jun-19 20:30N 33°45' W 118°11'0 0.0
2017-Jun-19 20:00N 33°45' W 118°11'0 0.0
2017-Jun-19 19:30N 33°45' W 118°11'0 0.0
2017-Jun-19 19:00N 33°45' W 118°11'0 0.0
2017-Jun-19 18:26N 33°45' W 118°11'0 0.0
2017-Jun-19 17:59N 33°45' W 118°11'0 0.0
2017-Jun-19 17:29N 33°45' W 118°11'0 0.0
2017-Jun-19 16:59N 33°45' W 118°11'0 0.0
2017-Jun-19 16:29N 33°45' W 118°11'0 0.0
2017-Jun-19 15:58N 33°45' W 118°11'0 0.0
2017-Jun-19 15:28N 33°45' W 118°11'0 0.0
2017-Jun-19 14:58N 33°45' W 118°11'0 0.0
2017-Jun-19 14:28N 33°45' W 118°11'0 0.0
2017-Jun-19 13:30N 33°45' W 118°11'0 0.0
2017-Jun-19 13:00N 33°45' W 118°11'0 0.5
2017-Jun-19 12:30N 33°45' W 118°11'1 2.3
2017-Jun-19 12:00N 33°44' W 118°11'4 9.0
2017-Jun-19 11:30N 33°39' W 118°10'4 7.5
2017-Jun-19 11:00N 33°36' W 118°10'3 6.7
2017-Jun-19 10:30N 33°32' W 118°08'3 6.9
2017-Jun-19 10:00N 33°29' W 118°07'4 7.1
2017-Jun-19 09:30N 33°26' W 118°05'3 7.0
2017-Jun-19 09:00N 33°23' W 118°04'4 7.2
2017-Jun-19 08:30N 33°19' W 118°03'4 7.0
2017-Jun-19 08:00N 33°16' W 118°01'4 7.4
2017-Jun-19 07:30N 33°12' W 117°60'4 7.0
2017-Jun-19 07:00N 33°09' W 117°58'4 7.1
2017-Jun-19 06:30N 33°06' W 117°57'4 8.0
2017-Jun-19 06:00N 33°02' W 117°55'2144.2
2017-Jun-19 06:00N 33°00' W 117°54'2 4.1 290 / 71013.2 5.4 17.013.717.0
2017-Jun-19 05:30N 32°58' W 117°53'4 8.5
2017-Jun-19 05:00N 32°54' W 117°52'4 8.5
2017-Jun-19 04:30N 32°50' W 117°50'4 8.3
2017-Jun-19 04:00N 32°46' W 117°48'4 8.3
2017-Jun-19 03:30N 32°42' W 117°46'4 8.1
2017-Jun-19 03:00N 32°39' W 117°45'4 8.0
2017-Jun-19 02:30N 32°35' W 117°43'4 7.8
2017-Jun-19 02:00N 32°31' W 117°42'4 7.8
2017-Jun-19 01:30N 32°27' W 117°41'4 7.7
2017-Jun-19 01:00N 32°24' W 117°39'4 8.0
2017-Jun-19 00:30N 32°20' W 117°38'4 7.9
2017-Jun-19 00:00N 32°16' W 117°36'4 8.2
2017-Jun-18 23:30N 32°13' W 117°33'4 7.9
2017-Jun-18 23:00N 32°09' W 117°31'4 7.7
2017-Jun-18 22:30N 32°06' W 117°28'4 7.1
2017-Jun-18 22:00N 32°03' W 117°26'3 6.6
2017-Jun-18 21:30N 32°00' W 117°24'815.9
2017-Jun-18 21:00N 31°54' W 117°18'471.4 290 / 101013.210.8 17.013.717.0
2017-Jun-18 20:56N 31°57' W 117°22'3 7.4
2017-Jun-18 20:30N 31°54' W 117°20'3 6.0
2017-Jun-18 20:00N 31°51' W 117°20'4 8.2
2017-Jun-18 19:30N 31°50' W 117°25'4 7.6
2017-Jun-18 19:00N 31°50' W 117°29'4 7.4
2017-Jun-18 18:30N 31°49' W 117°34'4 7.5
2017-Jun-18 18:00N 31°49' W 117°38'2140.6
2017-Jun-18 18:00N 31°48' W 117°36'611.3 270 / 31012.2 5.4 17.013.717.0
2017-Jun-18 17:29N 31°48' W 117°43'4 7.8
2017-Jun-18 17:00N 31°47' W 117°47'510.0
2017-Jun-18 16:31N 31°47' W 117°53'4 8.1
2017-Jun-18 16:00N 31°46' W 117°58'4 7.7
2017-Jun-18 15:30N 31°45' W 118°02'4 7.8
2017-Jun-18 15:01N 31°44' W 118°06'  
Track history (hours):
 
Tides and Currents Weather Stations Pressure Air Temp Water Temp Dewpoint Dewpoint Depression Visibility Wind Speed Wind Dir Waves Ship Positions

Inspiration

Operator: Carnival Cruise Lines

Last reported at 2017-Jun-28 14:03 UTC. Time now 2017-Jun-29 01:52 UTC.
Position N 31°50' W 116°38'.

Type: Ship. MMSI: 309484000.

Date/timePositionNaut miles runAvg speedWind from/ knotsBaromVisibWave heightAir tempDewpointWater temp
2017-Jun-28 14:03N 31°50' W 116°38'5 7.9
2017-Jun-28 13:22N 31°51' W 116°44'4 9.2
2017-Jun-28 12:59N 31°53' W 116°48'4 8.9
2017-Jun-28 12:30N 31°55' W 116°52'5 9.1
2017-Jun-28 12:00N 31°56' W 116°57'5 9.4
2017-Jun-28 11:30N 31°57' W 117°03'4 8.8
2017-Jun-28 11:00N 31°58' W 117°08'4 8.8
2017-Jun-28 10:30N 31°59' W 117°13'4 8.8
2017-Jun-28 10:00N 32°01' W 117°17'5 9.4
2017-Jun-28 09:30N 32°03' W 117°22'5 9.4
2017-Jun-28 09:00N 32°06' W 117°27'10630.8
2017-Jun-28 09:00N 32°00' W 117°18'1429.6 340 / 161015.210.8 16.012.717.0
2017-Jun-28 08:30N 32°09' W 117°32'5 9.4
2017-Jun-28 08:00N 32°12' W 117°35'5 9.1
2017-Jun-28 07:30N 32°16' W 117°37'5 9.4
2017-Jun-28 07:00N 32°21' W 117°40'5 9.4
2017-Jun-28 06:30N 32°25' W 117°42'5 9.4
2017-Jun-28 06:00N 32°29' W 117°45'5 9.4
2017-Jun-28 05:30N 32°33' W 117°47'5 9.5
2017-Jun-28 05:00N 32°37' W 117°50'5 9.8
2017-Jun-28 04:30N 32°42' W 117°53'5 9.9
2017-Jun-28 04:00N 32°46' W 117°55'5 9.9
2017-Jun-28 03:30N 32°51' W 117°58'5 9.4
2017-Jun-28 03:00N 32°55' W 118°00'5 9.4
2017-Jun-28 02:30N 32°59' W 118°03'5 9.5
2017-Jun-28 02:00N 33°03' W 118°06'5 9.6
2017-Jun-28 01:30N 33°08' W 118°08'510.2
2017-Jun-28 01:00N 33°12' W 118°11'611.0
2017-Jun-28 00:30N 33°17' W 118°14'510.2
2017-Jun-28 00:00N 33°21' W 118°18'1 1.3
2017-Jun-27 23:26N 33°21' W 118°19'0 0.0
2017-Jun-27 22:59N 33°21' W 118°19'0 0.0
2017-Jun-27 22:28N 33°21' W 118°19'0 0.0
2017-Jun-27 21:58N 33°21' W 118°19'0 0.0
2017-Jun-27 21:19N 33°21' W 118°19'0 0.0
2017-Jun-27 20:55N 33°21' W 118°19'0 0.0
2017-Jun-27 20:28N 33°21' W 118°19'0 0.0
2017-Jun-27 20:00N 33°21' W 118°19'0 0.0
2017-Jun-27 19:30N 33°21' W 118°19'0 0.0
2017-Jun-27 19:00N 33°21' W 118°19'0 0.0
2017-Jun-27 18:30N 33°21' W 118°19'0 0.1
2017-Jun-27 18:00N 33°21' W 118°19'0 0.1
2017-Jun-27 17:29N 33°21' W 118°19'0 0.0
2017-Jun-27 16:59N 33°21' W 118°19'0 0.1
2017-Jun-27 16:29N 33°21' W 118°19'0 0.0
2017-Jun-27 15:59N 33°21' W 118°19'0 0.0
2017-Jun-27 15:29N 33°21' W 118°19'0 0.0
2017-Jun-27 14:55N 33°21' W 118°19'0 0.1
2017-Jun-27 14:00N 33°21' W 118°19'3 6.0
2017-Jun-27 13:30N 33°19' W 118°16'4 8.3
2017-Jun-27 13:00N 33°15' W 118°16'4 8.1
2017-Jun-27 12:31N 33°11' W 118°16'4 7.7
2017-Jun-27 12:00N 33°07' W 118°15'4 8.0
2017-Jun-27 11:30N 33°03' W 118°12'4 8.2
2017-Jun-27 11:00N 33°00' W 118°09'4 8.3
2017-Jun-27 10:31N 32°57' W 118°06'4 8.1
2017-Jun-27 10:01N 32°54' W 118°03'4 8.0
2017-Jun-27 09:30N 32°51' W 118°00'4 8.1
2017-Jun-27 09:00N 32°47' W 117°57'6433.1
2017-Jun-27 09:00N 32°42' W 117°54'714.9 300 / 121015.210.8 17.015.417.5
2017-Jun-27 08:30N 32°49' W 117°54'4 8.2
2017-Jun-27 08:01N 32°53' W 117°55'4 8.1
2017-Jun-27 07:30N 32°57' W 117°57'4 8.2
2017-Jun-27 07:00N 33°01' W 117°59'4 7.5
2017-Jun-27 06:30N 33°04' W 118°00'4 7.1
2017-Jun-27 06:00N 33°08' W 118°01'4 7.2
2017-Jun-27 05:30N 33°11' W 118°03'4 7.3
2017-Jun-27 05:00N 33°15' W 118°04'4 7.3
2017-Jun-27 04:31N 33°18' W 118°06'4 7.2
2017-Jun-27 04:00N 33°21' W 118°07'4 7.9
2017-Jun-27 03:31N 33°25' W 118°09'4 7.7
2017-Jun-27 03:01N 33°29' W 118°10'4 8.2
2017-Jun-27 02:30N 33°33' W 118°12'510.5
2017-Jun-27 02:00N 33°38' W 118°12'510.0
2017-Jun-27 01:30N 33°43' W 118°11'2 4.5
2017-Jun-27 00:59N 33°45' W 118°11'0 0.0
2017-Jun-27 00:29N 33°45' W 118°11'0 0.0
2017-Jun-26 23:59N 33°45' W 118°11'0 0.0
2017-Jun-26 23:29N 33°45' W 118°11'0 0.0
2017-Jun-26 22:58N 33°45' W 118°11'0 0.0
2017-Jun-26 22:28N 33°45' W 118°11'0 0.0
2017-Jun-26 21:58N 33°45' W 118°11'0 0.0
2017-Jun-26 21:28N 33°45' W 118°11'0 0.0
2017-Jun-26 21:00N 33°45' W 118°11'0 0.0
2017-Jun-26 20:30N 33°45' W 118°11'0 0.0
2017-Jun-26 20:00N 33°45' W 118°11'0 0.0
2017-Jun-26 19:30N 33°45' W 118°11'0 0.0
2017-Jun-26 19:00N 33°45' W 118°11'0 0.0
2017-Jun-26 18:29N 33°45' W 118°11'0 0.0
2017-Jun-26 17:59N 33°45' W 118°11'0 0.0
2017-Jun-26 17:29N 33°45' W 118°11'0 0.0
2017-Jun-26 16:59N 33°45' W 118°11'0 0.0
2017-Jun-26 16:25N 33°45' W 118°11'0 0.0
2017-Jun-26 15:58N 33°45' W 118°11'0 0.0
2017-Jun-26 15:28N 33°45' W 118°11'0 0.0
2017-Jun-26 14:58N 33°45' W 118°11'0 0.0
2017-Jun-26 14:28N 33°45' W 118°11'0 0.0
2017-Jun-26 13:30N 33°45' W 118°11'0 0.0
2017-Jun-26 12:54N 33°45' W 118°11'0 0.3
2017-Jun-26 12:30N 33°45' W 118°11'1 1.9
2017-Jun-26 12:00N 33°44' W 118°11'4 8.9
2017-Jun-26 11:30N 33°40' W 118°11'4 8.5
2017-Jun-26 11:00N 33°35' W 118°10'4 7.2
2017-Jun-26 10:30N 33°32' W 118°08'4 7.5
2017-Jun-26 10:00N 33°29' W 118°07'4 7.4
2017-Jun-26 09:30N 33°25' W 118°05'4 7.5
2017-Jun-26 09:00N 33°21' W 118°04'4 7.6
2017-Jun-26 08:30N 33°18' W 118°02'4 8.3
2017-Jun-26 08:00N 33°14' W 118°00'4 8.4
2017-Jun-26 07:30N 33°10' W 117°58'4 7.8
2017-Jun-26 07:00N 33°07' W 117°56'4 7.9
2017-Jun-26 06:30N 33°03' W 117°54'4 8.0
2017-Jun-26 06:00N 32°59' W 117°52'4 8.8
2017-Jun-26 05:30N 32°55' W 117°50'5 9.1
2017-Jun-26 05:01N 32°51' W 117°50'5 9.1
2017-Jun-26 04:30N 32°46' W 117°48'4 8.7
2017-Jun-26 04:00N 32°42' W 117°47'4 8.7
2017-Jun-26 03:30N 32°38' W 117°45'4 8.6
2017-Jun-26 03:00N 32°34' W 117°43'4 9.0
2017-Jun-26 02:30N 32°30' W 117°42'4 8.9
2017-Jun-26 02:00N 32°26' W 117°40'4 8.8
2017-Jun-26 01:30N 32°21' W 117°38'4 8.6
2017-Jun-26 01:00N 32°18' W 117°36'4 8.1
2017-Jun-26 00:30N 32°14' W 117°34'4 8.2
2017-Jun-26 00:00N 32°11' W 117°31'4 7.9
2017-Jun-25 23:31N 32°08' W 117°28'5 9.4
2017-Jun-25 23:00N 32°04' W 117°25'510.3
2017-Jun-25 22:30N 31°60' W 117°21'4 8.8
2017-Jun-25 22:00N 31°56' W 117°18'4 7.6
2017-Jun-25 21:30N 31°52' W 117°17'5 9.3
2017-Jun-25 21:00N 31°50' W 117°22'4276.5
2017-Jun-25 21:00N 31°48' W 117°18'917.7 300 / 261013.3 17.013.717.0
2017-Jun-25 20:30N 31°49' W 117°28'510.2
2017-Jun-25 20:00N 31°49' W 117°34'5 9.0
2017-Jun-25 19:30N 31°48' W 117°39'4 8.0
2017-Jun-25 19:00N 31°47' W 117°44'4 7.5
2017-Jun-25 18:30N 31°46' W 117°48'4 7.7
2017-Jun-25 18:00N 31°45' W 117°52'4 7.5
2017-Jun-25 17:30N 31°44' W 117°57'3 6.2
2017-Jun-25 17:00N 31°41' W 117°55'3 6.7
2017-Jun-25 16:30N 31°38' W 117°53'3 6.2
2017-Jun-25 16:00N 31°37' W 117°56'4 7.5
2017-Jun-25 15:31N 31°36' W 118°00'4 7.5
2017-Jun-25 15:00N 31°35' W 118°05'4 7.3
2017-Jun-25 14:30N 31°34' W 118°09'3 3.4
2017-Jun-25 13:30N 31°31' W 118°09'3 6.9
2017-Jun-25 13:00N 31°31' W 118°05'3 7.0
2017-Jun-25 12:31N 31°31' W 118°01'4 7.1
2017-Jun-25 12:00N 31°31' W 117°57'4 7.1
2017-Jun-25 11:30N 31°31' W 117°53'3 6.5
2017-Jun-25 11:00N 31°33' W 117°50'4 7.2
2017-Jun-25 10:30N 31°36' W 117°51'4 7.6
2017-Jun-25 10:01N 31°39' W 117°54'4 7.1
2017-Jun-25 09:30N 31°42' W 117°55'4 7.4
2017-Jun-25 09:00N 31°45' W 117°53'5319.9
2017-Jun-25 09:00N 31°42' W 117°48'3 7.2 310 / 251014.2 5.4 17.015.417.0
2017-Jun-25 08:31N 31°45' W 117°48'4 8.1
2017-Jun-25 08:00N 31°46' W 117°43'4 8.0
2017-Jun-25 07:31N 31°47' W 117°39'4 8.0
2017-Jun-25 07:00N 31°47' W 117°34'4 7.9
2017-Jun-25 06:30N 31°48' W 117°29'4 8.0
2017-Jun-25 06:01N 31°48' W 117°25'6330.3
2017-Jun-25 06:00N 31°42' W 117°24'713.7 320 / 211015.210.8 17.015.417.0
2017-Jun-25 05:31N 31°48' W 117°20'4 8.2
2017-Jun-25 05:00N 31°48' W 117°15'4 8.0
2017-Jun-25 04:31N 31°48' W 117°10'4 8.3
2017-Jun-25 04:01N 31°49' W 117°06'4 8.3
2017-Jun-25 03:31N 31°49' W 117°01'4 8.5
2017-Jun-25 03:00N 31°50' W 116°56'4 8.8
2017-Jun-25 02:30N 31°50' W 116°50'5 9.4
2017-Jun-25 02:00N 31°50' W 116°45'5 9.8
2017-Jun-25 01:31N 31°50' W 116°39'1 0.1
2017-Jun-24 14:00N 31°50' W 116°40'2364.0
2017-Jun-24 14:00N 31°48' W 116°42'4 8.5 320 / 151016.2 5.4 16.012.716.0
2017-Jun-24 13:29N 31°51' W 116°45'510.1
2017-Jun-24 13:00N 31°54' W 116°50'510.7
2017-Jun-24 12:30N 31°56' W 116°56'510.3
2017-Jun-24 12:00N 31°57' W 117°02'611.6
2017-Jun-24 11:30N 31°59' W 117°08'714.8
2017-Jun-24 11:00N 32°02' W 117°16'714.9
2017-Jun-24 10:30N 32°06' W 117°23'815.0
2017-Jun-24 10:00N 32°11' W 117°30'7640.1
2017-Jun-24 10:00N 32°06' W 117°24'1530.4 320 / 201013.3 17.013.717.0
2017-Jun-24 09:30N 32°18' W 117°34'714.6
2017-Jun-24 09:00N 32°25' W 117°37'713.2
2017-Jun-24 08:30N 32°31' W 117°40'611.4
2017-Jun-24 08:00N 32°36' W 117°43'611.5
2017-Jun-24 07:30N 32°41' W 117°46'611.4
2017-Jun-24 07:00N 32°47' W 117°48'611.3
2017-Jun-24 06:30N 32°52' W 117°51'611.1
2017-Jun-24 06:00N 32°57' W 117°54'611.3
2017-Jun-24 05:30N 33°02' W 117°57'611.1
2017-Jun-24 05:00N 33°07' W 118°00'510.5
2017-Jun-24 04:30N 33°12' W 118°02'511.0
2017-Jun-24 04:00N 33°17' W 118°05'611.3
2017-Jun-24 03:30N 33°22' W 118°07'511.0
2017-Jun-24 03:00N 33°27' W 118°10'510.9
2017-Jun-24 02:30N 33°32' W 118°12'510.7
2017-Jun-24 02:00N 33°37' W 118°13'510.0
2017-Jun-24 01:30N 33°42' W 118°11'3 3.8
2017-Jun-24 00:47N 33°45' W 118°11'0 0.0
2017-Jun-24 00:26N 33°45' W 118°11'0 0.0
2017-Jun-23 23:55N 33°45' W 118°11'0 0.0
2017-Jun-23 23:25N 33°45' W 118°11'0 0.0
2017-Jun-23 22:55N 33°45' W 118°11'0 0.0
2017-Jun-23 22:28N 33°45' W 118°11'0 0.0
2017-Jun-23 22:00N 33°45' W 118°11'0 0.0
2017-Jun-23 21:30N 33°45' W 118°11'0 0.0
2017-Jun-23 20:30N 33°45' W 118°11'0 0.0
2017-Jun-23 19:51N 33°45' W 118°11'0 0.0
2017-Jun-23 19:26N 33°45' W 118°11'0 0.0
2017-Jun-23 18:59N 33°45' W 118°11'0 0.0
2017-Jun-23 18:29N 33°45' W 118°11'0 0.0
2017-Jun-23 17:53N 33°45' W 118°11'0 0.0
2017-Jun-23 17:29N 33°45' W 118°11'0 0.0
2017-Jun-23 16:58N 33°45' W 118°11'0 0.0
2017-Jun-23 16:28N 33°45' W 118°11'0 0.0
2017-Jun-23 15:58N 33°45' W 118°11'0 0.0
2017-Jun-23 15:22N 33°45' W 118°11'0 0.0
2017-Jun-23 15:00N 33°45' W 118°11'0 0.0
2017-Jun-23 14:00N 33°45' W 118°11'0 0.0
2017-Jun-23 13:27N 33°45' W 118°11'0 0.0
2017-Jun-23 13:00N 33°45' W 118°11'0 0.1
2017-Jun-23 12:30N 33°45' W 118°11'1 2.0
2017-Jun-23 12:00N 33°44' W 118°11'5 9.3
2017-Jun-23 11:30N 33°39' W 118°10'4 8.0
2017-Jun-23 11:00N 33°36' W 118°10'4 8.1
2017-Jun-23 10:30N 33°32' W 118°08'4 8.0
2017-Jun-23 10:00N 33°28' W 118°06'4 8.2
2017-Jun-23 09:30N 33°24' W 118°05'4 8.0
2017-Jun-23 09:00N 33°20' W 118°03'4 7.9
2017-Jun-23 08:30N 33°17' W 118°01'4 8.2
2017-Jun-23 08:00N 33°13' W 117°60'4 7.7
2017-Jun-23 07:30N 33°09' W 117°58'4 8.4
2017-Jun-23 07:00N 33°05' W 117°56'2140.6
2017-Jun-23 07:00N 33°06' W 117°54'4 9.3 300 / 31013.2 5.4 17.013.717.0
2017-Jun-23 06:30N 33°02' W 117°55'4 7.5
2017-Jun-23 06:00N 32°58' W 117°54'6403.5
2017-Jun-23 06:00N 32°54' W 117°48'4 7.3 180 / 51015.210.8 17.015.417.0
2017-Jun-23 05:30N 32°55' W 117°52'4 7.8
2017-Jun-23 05:00N 32°51' W 117°50'4 7.8
2017-Jun-23 04:30N 32°47' W 117°49'4 7.8
2017-Jun-23 04:00N 32°44' W 117°47'4 7.7
2017-Jun-23 03:30N 32°40' W 117°45'4 7.8
2017-Jun-23 03:00N 32°36' W 117°44'4 8.0
2017-Jun-23 02:30N 32°33' W 117°42'4 8.1
2017-Jun-23 02:00N 32°29' W 117°41'4 8.0
2017-Jun-23 01:30N 32°25' W 117°40'4 8.1
2017-Jun-23 01:00N 32°21' W 117°38'4 7.9
2017-Jun-23 00:30N 32°17' W 117°37'4 7.9
2017-Jun-23 00:00N 32°14' W 117°34'4 8.3
2017-Jun-22 23:29N 32°10' W 117°32'4 9.2
2017-Jun-22 23:00N 32°06' W 117°30'5 9.2
2017-Jun-22 22:29N 32°02' W 117°27'4 9.3
2017-Jun-22 22:00N 31°57' W 117°25'5 9.4
2017-Jun-22 21:26N 31°53' W 117°23'4 8.7
2017-Jun-22 21:00N 31°49' W 117°22'6 9.7
2017-Jun-22 20:25N 31°47' W 117°29'512.3
2017-Jun-22 20:00N 31°42' W 117°30'5174.2 260 / 41013.2 18.014.817.0
2017-Jun-22 19:58N 31°46' W 117°33'5 8.6
2017-Jun-22 19:21N 31°44' W 117°39'3 8.6
2017-Jun-22 19:00N 31°43' W 117°43'4 8.7
2017-Jun-22 18:30N 31°42' W 117°47'4 8.0
2017-Jun-22 18:00N 31°40' W 117°51'4 7.0
2017-Jun-22 17:30N 31°37' W 117°49'3 5.4
2017-Jun-22 17:00N 31°35' W 117°51'4 7.6
2017-Jun-22 16:30N 31°36' W 117°55'4 7.5
2017-Jun-22 16:00N 31°37' W 117°59'4 7.7
2017-Jun-22 15:30N 31°39' W 118°03'4 7.3
2017-Jun-22 15:00N 31°39' W 118°08'4 7.9
2017-Jun-22 14:30N 31°36' W 118°10'51179919.8
2017-Jun-22 14:00N 31°30' W 018°06'511610487.4 290 / 101017.2 5.4 16.012.716.0
2017-Jun-22 13:30N 31°31' W 118°06'4 7.6
2017-Jun-22 13:00N 31°31' W 118°02'5 7.7
2017-Jun-22 12:25N 31°31' W 117°56'3 7.7
2017-Jun-22 12:00N 31°31' W 117°53'4 7.2
2017-Jun-22 11:30N 31°33' W 117°49'4 8.0
2017-Jun-22 11:00N 31°37' W 117°51'4 8.6
2017-Jun-22 10:30N 31°40' W 117°55'4 7.9
2017-Jun-22 10:00N 31°44' W 117°54'4 8.4
2017-Jun-22 09:30N 31°45' W 117°50'4 8.7
2017-Jun-22 09:00N 31°45' W 117°44'4586.2
2017-Jun-22 09:00N 31°42' W 117°42'4 9.2 290 / 101013.2 5.4 16.010.816.0
2017-Jun-22 08:30N 31°46' W 117°39'4 8.6
2017-Jun-22 08:00N 31°46' W 117°34'4 8.7
2017-Jun-22 07:30N 31°47' W 117°29'4 8.8
2017-Jun-22 07:00N 31°47' W 117°24'4 8.4
2017-Jun-22 06:30N 31°48' W 117°19'816.5
2017-Jun-22 06:00N 31°42' W 117°12'6298.2 320 / 101013.2 5.4 17.015.417.0
2017-Jun-22 05:58N 31°48' W 117°14'4 8.4
2017-Jun-22 05:30N 31°48' W 117°10'5 8.4
2017-Jun-22 04:55N 31°49' W 117°04'10 8.6
2017-Jun-22 03:47N 31°50' W 116°52'12 0.9
2017-Jun-21 14:10N 31°50' W 116°38'5 8.0
2017-Jun-21 13:31N 31°51' W 116°44'4 8.8
2017-Jun-21 13:00N 31°53' W 116°49'4 8.7
2017-Jun-21 12:30N 31°55' W 116°54'5 9.3
2017-Jun-21 12:01N 31°56' W 116°59'510.2
2017-Jun-21 11:30N 31°57' W 117°05'510.2
2017-Jun-21 11:01N 31°59' W 117°10'510.2
2017-Jun-21 10:31N 31°60' W 117°16'510.1
2017-Jun-21 10:00N 32°02' W 117°22'4254.7
2017-Jun-21 10:00N 32°00' W 117°18'918.1 300 / 131012.2 0.1 17.013.716.0
2017-Jun-21 09:31N 32°05' W 117°26'5 9.4
2017-Jun-21 09:01N 32°08' W 117°31'4 8.5
2017-Jun-21 08:31N 32°11' W 117°34'5 9.1
2017-Jun-21 08:01N 32°15' W 117°37'5 9.3
2017-Jun-21 07:31N 32°19' W 117°39'5 9.2
2017-Jun-21 07:01N 32°23' W 117°42'5 9.2
2017-Jun-21 06:30N 32°28' W 117°44'5 9.4
2017-Jun-21 06:01N 32°32' W 117°47'2125.0
2017-Jun-21 06:00N 32°30' W 117°48'612.4 350 / 111013.2 0.0 16.014.417.0
2017-Jun-21 05:31N 32°36' W 117°49'5 9.4
2017-Jun-21 05:01N 32°40' W 117°52'5 9.7
2017-Jun-21 04:30N 32°44' W 117°54'510.1
2017-Jun-21 04:01N 32°49' W 117°57'510.1
2017-Jun-21 03:31N 32°53' W 117°60'5 9.3
2017-Jun-21 03:01N 32°58' W 118°02'5 9.1
2017-Jun-21 02:30N 33°02' W 118°05'4 9.0
2017-Jun-21 02:01N 33°06' W 118°07'4 8.9
2017-Jun-21 01:30N 33°10' W 118°09'4 8.9
2017-Jun-21 01:01N 33°14' W 118°12'5 9.9
2017-Jun-21 00:31N 33°18' W 118°15'5 9.1
2017-Jun-21 00:01N 33°21' W 118°19'0 0.3
2017-Jun-20 23:27N 33°21' W 118°19'0 0.0
2017-Jun-20 22:56N 33°21' W 118°19'0 0.0
2017-Jun-20 22:20N 33°21' W 118°19'0 0.1
2017-Jun-20 21:59N 33°21' W 118°19'0 0.0
2017-Jun-20 21:29N 33°21' W 118°19'0 0.0
2017-Jun-20 20:59N 33°21' W 118°19'0 0.0
2017-Jun-20 20:28N 33°21' W 118°19'0 0.0
2017-Jun-20 19:58N 33°21' W 118°19'0 0.0
2017-Jun-20 19:28N 33°21' W 118°19'0 0.0
2017-Jun-20 18:58N 33°21' W 118°19'0 0.0
2017-Jun-20 18:30N 33°21' W 118°19'0 0.0
2017-Jun-20 18:00N 33°21' W 118°19'0 0.1
2017-Jun-20 17:30N 33°21' W 118°19'0 0.1
2017-Jun-20 17:00N 33°21' W 118°19'0 0.0
2017-Jun-20 16:30N 33°21' W 118°19'0 0.0
2017-Jun-20 15:59N 33°21' W 118°19'0 0.1
2017-Jun-20 15:17N 33°21' W 118°19'0 0.0
2017-Jun-20 15:01N 33°21' W 118°19'0 0.0
2017-Jun-20 14:30N 33°21' W 118°19'3 3.2
2017-Jun-20 13:31N 33°18' W 118°17'4 7.9
2017-Jun-20 13:00N 33°14' W 118°16'4 7.9
2017-Jun-20 12:30N 33°11' W 118°16'4 7.9
2017-Jun-20 12:00N 33°07' W 118°15'4 8.1
2017-Jun-20 11:30N 33°03' W 118°13'4 7.7
2017-Jun-20 11:00N 32°60' W 118°11'4 8.0
2017-Jun-20 10:31N 32°57' W 118°07'4 8.0
2017-Jun-20 10:00N 32°54' W 118°04'4 8.0
2017-Jun-20 09:31N 32°51' W 118°02'4 8.0
2017-Jun-20 09:00N 32°47' W 117°59'4 7.2
2017-Jun-20 08:30N 32°48' W 117°55'4 7.5
2017-Jun-20 08:01N 32°52' W 117°55'4227.2
2017-Jun-20 08:00N 32°48' W 117°54'816.3 290 / 101011.2 0.0 16.014.416.0
2017-Jun-20 07:31N 32°56' W 117°56'4 7.7
2017-Jun-20 07:00N 32°59' W 117°58'4 7.8
2017-Jun-20 06:31N 33°03' W 117°59'4 7.8
2017-Jun-20 06:00N 33°07' W 118°01'164.3
2017-Jun-20 06:00N 33°06' W 118°00'510.1 310 / 81013.2 17.013.717.0
2017-Jun-20 05:31N 33°10' W 118°03'4 7.9
2017-Jun-20 05:01N 33°14' W 118°04'4 8.0
2017-Jun-20 04:31N 33°18' W 118°06'4 7.9
2017-Jun-20 04:00N 33°22' W 118°07'4 8.0
2017-Jun-20 03:31N 33°25' W 118°09'4 8.0
2017-Jun-20 03:00N 33°29' W 118°10'4 8.2
2017-Jun-20 02:31N 33°33' W 118°12'510.2
2017-Jun-20 02:00N 33°38' W 118°13'5 9.2
2017-Jun-20 01:30N 33°43' W 118°11'2 5.0
2017-Jun-20 01:01N 33°45' W 118°11'0 0.0
2017-Jun-20 00:29N 33°45' W 118°11'0 0.0
2017-Jun-19 23:59N 33°45' W 118°11'0 0.0
2017-Jun-19 23:29N 33°45' W 118°11'0 0.0
2017-Jun-19 22:58N 33°45' W 118°11'0 0.0
2017-Jun-19 22:28N 33°45' W 118°11'0 0.0
2017-Jun-19 21:58N 33°45' W 118°11'0 0.0
2017-Jun-19 21:28N 33°45' W 118°11'0 0.0
2017-Jun-19 20:58N 33°45' W 118°11'0 0.0
2017-Jun-19 20:30N 33°45' W 118°11'0 0.0
2017-Jun-19 20:00N 33°45' W 118°11'0 0.0
2017-Jun-19 19:30N 33°45' W 118°11'0 0.0
2017-Jun-19 19:00N 33°45' W 118°11'0 0.0
2017-Jun-19 18:26N 33°45' W 118°11'0 0.0
2017-Jun-19 17:59N 33°45' W 118°11'0 0.0
2017-Jun-19 17:29N 33°45' W 118°11'0 0.0
2017-Jun-19 16:59N 33°45' W 118°11'0 0.0
2017-Jun-19 16:29N 33°45' W 118°11'0 0.0
2017-Jun-19 15:58N 33°45' W 118°11'0 0.0
2017-Jun-19 15:28N 33°45' W 118°11'0 0.0
2017-Jun-19 14:58N 33°45' W 118°11'0 0.0
2017-Jun-19 14:28N 33°45' W 118°11'0 0.0
2017-Jun-19 13:30N 33°45' W 118°11'0 0.0
2017-Jun-19 13:00N 33°45' W 118°11'0 0.5
2017-Jun-19 12:30N 33°45' W 118°11'1 2.3
2017-Jun-19 12:00N 33°44' W 118°11'4 9.0
2017-Jun-19 11:30N 33°39' W 118°10'4 7.5
2017-Jun-19 11:00N 33°36' W 118°10'3 6.7
2017-Jun-19 10:30N 33°32' W 118°08'3 6.9
2017-Jun-19 10:00N 33°29' W 118°07'4 7.1
2017-Jun-19 09:30N 33°26' W 118°05'3 7.0
2017-Jun-19 09:00N 33°23' W 118°04'4 7.2
2017-Jun-19 08:30N 33°19' W 118°03'4 7.0
2017-Jun-19 08:00N 33°16' W 118°01'4 7.4
2017-Jun-19 07:30N 33°12' W 117°60'4 7.0
2017-Jun-19 07:00N 33°09' W 117°58'4 7.1
2017-Jun-19 06:30N 33°06' W 117°57'4 8.0
2017-Jun-19 06:00N 33°02' W 117°55'2144.2
2017-Jun-19 06:00N 33°00' W 117°54'2 4.1 290 / 71013.2 5.4 17.013.717.0
2017-Jun-19 05:30N 32°58' W 117°53'4 8.5
2017-Jun-19 05:00N 32°54' W 117°52'4 8.5
2017-Jun-19 04:30N 32°50' W 117°50'4 8.3
2017-Jun-19 04:00N 32°46' W 117°48'4 8.3
2017-Jun-19 03:30N 32°42' W 117°46'4 8.1
2017-Jun-19 03:00N 32°39' W 117°45'4 8.0
2017-Jun-19 02:30N 32°35' W 117°43'4 7.8
2017-Jun-19 02:00N 32°31' W 117°42'4 7.8
2017-Jun-19 01:30N 32°27' W 117°41'4 7.7
2017-Jun-19 01:00N 32°24' W 117°39'4 8.0
2017-Jun-19 00:30N 32°20' W 117°38'4 7.9
2017-Jun-19 00:00N 32°16' W 117°36'4 8.2
2017-Jun-18 23:30N 32°13' W 117°33'4 7.9
2017-Jun-18 23:00N 32°09' W 117°31'4 7.7
2017-Jun-18 22:30N 32°06' W 117°28'4 7.1
2017-Jun-18 22:00N 32°03' W 117°26'3 6.6
2017-Jun-18 21:30N 32°00' W 117°24'815.9
2017-Jun-18 21:00N 31°54' W 117°18'471.4 290 / 101013.210.8 17.013.717.0
2017-Jun-18 20:56N 31°57' W 117°22'3 7.4
2017-Jun-18 20:30N 31°54' W 117°20'3 6.0
2017-Jun-18 20:00N 31°51' W 117°20'4 8.2
2017-Jun-18 19:30N 31°50' W 117°25'4 7.6
2017-Jun-18 19:00N 31°50' W 117°29'4 7.4
2017-Jun-18 18:30N 31°49' W 117°34'4 7.5
2017-Jun-18 18:00N 31°49' W 117°38'2140.6
2017-Jun-18 18:00N 31°48' W 117°36'611.3 270 / 31012.2 5.4 17.013.717.0
2017-Jun-18 17:29N 31°48' W 117°43'4 7.8
2017-Jun-18 17:00N 31°47' W 117°47'510.0
2017-Jun-18 16:31N 31°47' W 117°53'4 8.1
2017-Jun-18 16:00N 31°46' W 117°58'4 7.7
2017-Jun-18 15:30N 31°45' W 118°02'4 7.8
2017-Jun-18 15:01N 31°44' W 118°06'  

Dump ship's entire track history